SCJO

Details ICAO SCJO (ZOS)
Name Canal Bajo
Region Chile
Timezone America/Santiago (UTC-4.0)
Plans Departing 7
Arriving 9
Stats Elevation 187 ft / 57 m (AMSL)
Location -40.611210° -73.061039°
Runways 1
Magnetic Variation 7.932° E
Sunrise 2018-05-24 12:01:35 UTC / 2018-05-24 08:01:35 Local
Sunset 2018-05-24 21:39:29 UTC / 2018-05-24 17:39:29 Local
Advertisement - Login to hide

Runways

ID Width Length Bearing (true) Bearing (mag) Surface Threshold Offset Overrun Length
15 118 ft / 36 m 5,583 ft / 1,702 m 146.00° 138.07° Asphalt 0 ft / 0 m 125 ft / 38 m
33 118 ft / 36 m 5,583 ft / 1,702 m 326.00° 318.07° Asphalt 0 ft / 0 m 138 ft / 42 m

Map

Weather


0- 5 10 15 20 25 30 35+ Temperature / ° C

Clouds and Precipitation
Forecast for 2018-05-24 18:00 UTC. Updated 24 minutes ago

Ground ~20,000 ft ~40,000 ft Winds

METAR

SCJO 241700Z VRB03KT 9999 SCT030 14/09 Q1019

TAF

TAF SCJO 241030Z 2412/2424 VRB02KT 0500 FG OVC002 TN09/2412Z TX12/2418Z BECMG 2415/2417 5000 BR BKN007 BECMG 2418/2420 9999 NSW BKN030 BECMG 2423/2424 BKN040

Frequencies

Ground 121.70 MHz GND
Tower 119.50 MHz APP
Tower 118.90 MHz TWR
Warning: Do not use this data for real-world aviation or navigation. No guarantee of current accuracy is given.